Time;durP1;ratioP1;P1;durP2;ratioP2;P2;SDS_P1;SDS_P2;PMS_P1;PMS_P2;Temp;Humidity;BMP_temperature;BMP_pressure;BME280_temperature;BME280_humidity;BME280_pressure;Samples;Min_cycle;Max_cycle;Signal;HPM_P1;HPM_P2
2022/10/26 00:01:04;;;;;;;10.63;5.18;;;11.60;99.90;;;;;;5006802;28;20038;-74
2022/10/26 00:03:29;;;;;;;11.52;5.00;;;11.60;99.90;;;;;;5067959;28;20045;-74
2022/10/26 00:06:08;;;;;;;14.32;5.28;;;11.60;99.90;;;;;;5020145;28;20049;-74
2022/10/26 00:08:35;;;;;;;8.77;5.18;;;11.60;99.90;;;;;;5029355;28;20083;-74
2022/10/26 00:11:01;;;;;;;10.02;5.20;;;11.60;99.90;;;;;;4999795;28;20057;-74
2022/10/26 00:13:27;;;;;;;10.05;5.07;;;11.60;99.90;;;;;;5010371;28;20658;-74
2022/10/26 00:15:53;;;;;;;11.38;5.35;;;11.60;99.90;;;;;;5029210;28;20113;-73
2022/10/26 00:18:18;;;;;;;10.48;4.78;;;11.50;99.90;;;;;;4994513;28;20437;-73
2022/10/26 00:20:44;;;;;;;8.23;4.82;;;11.50;99.90;;;;;;5010550;28;20757;-73
2022/10/26 00:23:10;;;;;;;15.68;5.85;;;11.50;99.90;;;;;;5041524;28;20485;-73
2022/10/26 00:25:36;;;;;;;12.00;5.47;;;11.50;99.90;;;;;;5022415;28;20332;-73
2022/10/26 00:28:01;;;;;;;14.25;6.00;;;11.40;99.90;;;;;;5030124;28;20045;-73
2022/10/26 00:30:27;;;;;;;9.43;5.25;;;11.30;99.90;;;;;;5011729;28;20053;-73
2022/10/26 00:32:53;;;;;;;9.13;4.70;;;11.30;99.90;;;;;;5028733;28;20049;-74
2022/10/26 00:35:19;;;;;;;10.23;5.97;;;11.30;99.90;;;;;;5029033;28;20048;-73
2022/10/26 00:37:44;;;;;;;14.23;5.32;;;11.30;99.90;;;;;;5032839;28;20433;-73
2022/10/26 00:40:11;;;;;;;8.25;5.40;;;11.30;99.90;;;;;;5038069;28;20049;-73
2022/10/26 00:42:36;;;;;;;10.07;5.18;;;11.30;99.90;;;;;;5007859;28;20491;-73
2022/10/26 00:45:13;;;;;;;9.52;5.47;;;11.20;99.90;;;;;;5042194;28;20097;-73
2022/10/26 00:47:45;;;;;;;12.90;5.20;;;11.20;99.90;;;;;;5054397;28;20346;-73
2022/10/26 00:50:16;;;;;;;11.68;5.72;;;11.10;99.90;;;;;;5021720;28;20041;-73
2022/10/26 00:52:42;;;;;;;12.27;5.28;;;11.00;99.90;;;;;;5009381;28;20107;-73
2022/10/26 00:55:08;;;;;;;10.30;5.15;;;11.10;99.90;;;;;;5024384;28;20041;-74
2022/10/26 00:57:36;;;;;;;12.13;5.10;;;11.10;99.90;;;;;;5043094;28;20065;-69
2022/10/26 01:00:02;;;;;;;12.02;4.93;;;11.00;99.90;;;;;;5041331;28;20398;-69
2022/10/26 01:02:28;;;;;;;12.70;5.13;;;11.00;99.90;;;;;;4995522;28;20378;-73
2022/10/26 01:04:54;;;;;;;11.45;5.07;;;10.90;99.90;;;;;;5044915;28;20052;-73
2022/10/26 01:07:20;;;;;;;6.90;5.47;;;10.80;99.90;;;;;;5008382;28;20103;-73
2022/10/26 01:09:45;;;;;;;7.95;4.85;;;10.90;99.90;;;;;;5024889;28;20045;-74
2022/10/26 01:12:11;;;;;;;8.60;4.53;;;10.90;99.90;;;;;;5015657;28;20057;-73
2022/10/26 01:14:37;;;;;;;11.88;5.30;;;11.00;99.90;;;;;;5009467;28;20045;-73
2022/10/26 01:17:27;;;;;;;14.38;4.80;;;11.00;99.90;;;;;;5038467;28;20049;-74
2022/10/26 01:20:11;;;;;;;7.93;4.47;;;10.90;99.90;;;;;;5041152;28;20049;-69
2022/10/26 01:23:07;;;;;;;11.68;4.80;;;10.90;99.90;;;;;;5037249;28;20653;-69
2022/10/26 01:26:10;;;;;;;9.32;4.72;;;10.90;99.90;;;;;;5017708;28;20103;-70
2022/10/26 01:29:09;;;;;;;15.40;4.93;;;10.80;99.90;;;;;;5032170;28;20041;-73
2022/10/26 01:31:41;;;;;;;10.10;4.97;;;10.80;99.90;;;;;;5031885;28;20132;-73
2022/10/26 01:34:20;;;;;;;10.95;4.70;;;10.80;99.90;;;;;;5037861;28;20052;-70
2022/10/26 01:36:57;;;;;;;10.50;5.20;;;10.70;99.90;;;;;;5015971;28;20050;-69
2022/10/26 01:39:27;;;;;;;10.68;4.57;;;10.60;99.90;;;;;;5024893;28;20056;-69
2022/10/26 01:41:59;;;;;;;11.43;4.60;;;10.70;99.90;;;;;;5012476;28;20048;-73
2022/10/26 01:44:40;;;;;;;10.50;5.38;;;10.70;99.90;;;;;;5028114;28;20041;-73
2022/10/26 01:47:06;;;;;;;15.18;7.82;;;10.70;99.90;;;;;;5005222;28;20079;-70
2022/10/26 01:49:34;;;;;;;8.55;5.30;;;10.80;99.90;;;;;;5010622;28;20072;-69
2022/10/26 01:52:00;;;;;;;10.35;4.85;;;10.80;99.90;;;;;;5024756;28;20383;-69
2022/10/26 01:54:25;;;;;;;8.55;4.20;;;10.80;99.90;;;;;;5023166;28;20048;-70
2022/10/26 01:56:53;;;;;;;7.80;4.28;;;10.90;99.90;;;;;;5023261;28;20513;-73
2022/10/26 01:59:34;;;;;;;8.18;4.25;;;10.90;99.90;;;;;;5026539;28;20670;-72
2022/10/26 02:02:20;;;;;;;10.70;4.43;;;10.90;99.90;;;;;;5011310;28;20068;-73
2022/10/26 02:05:06;;;;;;;9.50;4.55;;;10.90;99.90;;;;;;5037425;28;20397;-68
2022/10/26 02:07:38;;;;;;;8.55;4.60;;;10.90;99.90;;;;;;5054966;28;20045;-69
2022/10/26 02:10:09;;;;;;;7.88;3.67;;;10.80;99.90;;;;;;5043694;28;20056;-69
2022/10/26 02:12:50;;;;;;;7.78;4.30;;;10.80;99.90;;;;;;5026529;28;20428;-69
2022/10/26 02:15:42;;;;;;;11.07;4.50;;;10.80;99.90;;;;;;5042151;28;20037;-68
2022/10/26 02:18:17;;;;;;;8.88;4.18;;;10.80;99.90;;;;;;5023981;28;20127;-69
2022/10/26 02:20:45;;;;;;;7.40;3.83;;;10.80;99.90;;;;;;5028019;28;20053;-68
2022/10/26 02:23:11;;;;;;;;;;;10.70;99.90;;;;;;5010661;28;20574;-72
2022/10/26 02:25:40;;;;;;;10.32;3.60;;;10.70;99.90;;;;;;5043142;28;19917;-69
2022/10/26 02:28:08;;;;;;;10.43;4.18;;;10.80;99.90;;;;;;5036249;28;20045;-69
2022/10/26 02:30:34;;;;;;;8.90;4.03;;;10.80;99.90;;;;;;5029467;28;20115;-69
2022/10/26 02:33:01;;;;;;;7.38;3.70;;;10.80;99.90;;;;;;5051961;28;20059;-69
2022/10/26 02:35:29;;;;;;;10.02;4.30;;;10.90;99.90;;;;;;5049528;28;20068;-73
2022/10/26 02:37:56;;;;;;;9.10;3.70;;;11.00;99.90;;;;;;5050455;28;20059;-73
2022/10/26 02:40:24;;;;;;;9.07;3.35;;;11.00;99.90;;;;;;5048253;28;20503;-69
2022/10/26 02:42:50;;;;;;;9.68;3.97;;;11.00;99.90;;;;;;5033350;28;20045;-72
2022/10/26 02:45:18;;;;;;;9.50;4.05;;;11.10;99.90;;;;;;5006169;28;20049;-73
2022/10/26 02:47:44;;;;;;;8.70;3.53;;;11.10;99.90;;;;;;5017202;28;20051;-69
2022/10/26 02:50:09;;;;;;;9.57;3.65;;;11.10;99.90;;;;;;5050071;28;20041;-72
2022/10/26 02:53:20;;;;;;;6.10;3.65;;;11.10;99.90;;;;;;5014035;28;20045;-72
2022/10/26 02:55:48;;;;;;;5.28;3.25;;;11.10;99.90;;;;;;5017520;28;20105;-69
2022/10/26 02:58:24;;;;;;;10.18;3.40;;;11.00;99.90;;;;;;5032171;28;20052;-69
2022/10/26 03:00:50;;;;;;;7.35;3.53;;;11.00;99.90;;;;;;5033796;28;20056;-73
2022/10/26 03:03:15;;;;;;;8.40;3.28;;;10.90;99.90;;;;;;5047333;28;20486;-68
2022/10/26 03:05:41;;;;;;;6.75;3.60;;;10.90;99.90;;;;;;5033905;28;20558;-72
2022/10/26 03:08:07;;;;;;;7.13;3.40;;;10.90;99.90;;;;;;5006034;28;20049;-70
2022/10/26 03:10:41;;;;;;;7.55;2.78;;;10.90;99.90;;;;;;5034135;28;20070;-69
2022/10/26 03:13:08;;;;;;;8.88;3.75;;;10.80;99.90;;;;;;5009708;28;20152;-68
2022/10/26 03:15:33;;;;;;;11.05;3.45;;;10.90;99.90;;;;;;5046875;28;20119;-69
2022/10/26 03:17:59;;;;;;;8.00;3.55;;;10.90;99.90;;;;;;5024219;28;20052;-69
2022/10/26 03:20:25;;;;;;;8.23;3.10;;;10.90;99.90;;;;;;5011630;28;20152;-69
2022/10/26 03:22:50;;;;;;;6.38;3.10;;;10.90;99.90;;;;;;5016752;28;20809;-73
2022/10/26 03:25:16;;;;;;;6.75;3.00;;;10.90;99.90;;;;;;5044462;28;20048;-73
2022/10/26 03:27:42;;;;;;;11.10;3.15;;;10.90;99.90;;;;;;5012893;28;20049;-72
2022/10/26 03:30:08;;;;;;;9.70;2.80;;;10.90;99.90;;;;;;5034001;28;20049;-68
2022/10/26 03:32:34;;;;;;;6.90;2.75;;;10.80;99.90;;;;;;5032920;28;20623;-68
2022/10/26 03:35:00;;;;;;;7.72;2.88;;;10.80;99.90;;;;;;5029565;28;20044;-69
2022/10/26 03:37:25;;;;;;;4.95;2.40;;;10.70;99.90;;;;;;5047402;28;20045;-73
2022/10/26 03:39:51;;;;;;;5.78;3.03;;;10.70;99.90;;;;;;5044927;28;20041;-73
2022/10/26 03:42:17;;;;;;;5.15;2.47;;;10.60;99.90;;;;;;5019997;28;20045;-73
2022/10/26 03:44:43;;;;;;;8.20;2.55;;;10.60;99.90;;;;;;5065105;28;20041;-69
2022/10/26 03:47:08;;;;;;;5.72;2.40;;;10.50;99.90;;;;;;5013266;28;20046;-69
2022/10/26 03:49:34;;;;;;;4.68;2.65;;;10.50;99.90;;;;;;5032273;28;20076;-73
2022/10/26 03:52:00;;;;;;;8.60;3.45;;;10.50;99.90;;;;;;5015591;28;20057;-70
2022/10/26 03:54:26;;;;;;;7.38;2.65;;;10.50;99.90;;;;;;5028695;28;20044;-69
2022/10/26 03:56:52;;;;;;;10.60;2.92;;;10.50;99.90;;;;;;5048977;28;20413;-69
2022/10/26 03:59:18;;;;;;;6.03;3.22;;;10.60;99.90;;;;;;5007239;28;20114;-70
2022/10/26 04:01:44;;;;;;;9.95;3.17;;;10.70;99.90;;;;;;5029907;28;20072;-70
2022/10/26 04:04:10;;;;;;;5.97;3.70;;;10.60;99.90;;;;;;5041139;28;20103;-70
2022/10/26 04:06:36;;;;;;;5.95;3.28;;;10.70;99.90;;;;;;5012696;28;20041;-73
2022/10/26 04:09:03;;;;;;;10.88;4.28;;;10.70;99.90;;;;;;5066415;28;20094;-69
2022/10/26 04:11:28;;;;;;;8.13;3.25;;;10.60;99.90;;;;;;5008428;28;20044;-70
2022/10/26 04:13:54;;;;;;;6.45;3.10;;;10.70;99.90;;;;;;5054696;28;20048;-70
2022/10/26 04:16:20;;;;;;;9.77;2.90;;;10.60;99.90;;;;;;5009504;28;20040;-69
2022/10/26 04:18:46;;;;;;;6.68;2.80;;;10.60;99.90;;;;;;5015454;28;20090;-70
2022/10/26 04:21:12;;;;;;;8.20;3.25;;;10.50;99.90;;;;;;5030664;28;20053;-70
2022/10/26 04:23:38;;;;;;;7.00;3.15;;;10.60;99.90;;;;;;5031710;28;20049;-70
2022/10/26 04:26:04;;;;;;;8.60;2.78;;;10.60;99.90;;;;;;5043541;28;20049;-69
2022/10/26 04:28:30;;;;;;;8.50;3.17;;;10.60;99.90;;;;;;5035595;28;20056;-70
2022/10/26 04:30:56;;;;;;;9.18;3.30;;;10.60;99.90;;;;;;5030478;28;20048;-70
2022/10/26 04:33:22;;;;;;;5.95;2.83;;;10.60;99.90;;;;;;5041545;28;20055;-70
2022/10/26 04:35:48;;;;;;;7.55;2.85;;;10.60;99.90;;;;;;5060757;28;20048;-69
2022/10/26 04:38:13;;;;;;;9.45;3.05;;;10.60;99.90;;;;;;5024138;28;20043;-70
2022/10/26 04:40:40;;;;;;;6.43;3.40;;;10.60;99.90;;;;;;5010492;28;20041;-70
2022/10/26 04:43:05;;;;;;;6.65;2.65;;;10.50;99.90;;;;;;5047447;28;20064;-70
2022/10/26 04:45:31;;;;;;;5.78;3.03;;;10.50;99.90;;;;;;5038859;28;20076;-70
2022/10/26 04:48:09;;;;;;;6.53;2.80;;;10.40;99.90;;;;;;5030180;28;20059;-70
2022/10/26 04:50:35;;;;;;;5.85;2.80;;;10.30;99.90;;;;;;5029063;28;20053;-70
2022/10/26 04:53:01;;;;;;;6.30;2.63;;;10.20;99.90;;;;;;5013053;28;20040;-70
2022/10/26 04:55:26;;;;;;;9.63;2.58;;;10.10;99.90;;;;;;5025443;28;20044;-69
2022/10/26 04:57:52;;;;;;;8.00;2.42;;;10.10;99.90;;;;;;5002069;28;20061;-70
2022/10/26 05:00:18;;;;;;;8.43;2.58;;;10.00;99.90;;;;;;5045231;28;20045;-70
2022/10/26 05:02:44;;;;;;;7.20;2.53;;;9.90;99.90;;;;;;5026400;28;20056;-70
2022/10/26 05:05:09;;;;;;;5.07;3.40;;;9.90;99.90;;;;;;5031224;28;20052;-69
2022/10/26 05:07:35;;;;;;;5.32;2.63;;;9.90;99.90;;;;;;5028204;28;20041;-70
2022/10/26 05:10:01;;;;;;;6.82;3.13;;;9.90;99.90;;;;;;5030324;28;20172;-70
2022/10/26 05:12:27;;;;;;;7.70;3.50;;;9.90;99.90;;;;;;5012901;28;20398;-70
2022/10/26 05:14:57;;;;;;;5.80;2.55;;;9.90;99.90;;;;;;5008025;28;20041;-70
2022/10/26 05:17:25;;;;;;;10.02;3.40;;;10.00;99.90;;;;;;5031702;28;20041;-70
2022/10/26 05:19:55;;;;;;;5.37;3.07;;;10.00;99.90;;;;;;5025792;28;20053;-69
2022/10/26 05:22:21;;;;;;;10.60;3.78;;;10.10;99.90;;;;;;5019951;28;20348;-70
2022/10/26 05:24:47;;;;;;;10.90;3.72;;;10.10;99.90;;;;;;5035439;28;20080;-69
2022/10/26 05:27:13;;;;;;;11.02;3.47;;;10.20;99.90;;;;;;5025060;28;20134;-70
2022/10/26 05:29:38;;;;;;;6.38;3.58;;;10.20;99.90;;;;;;5024425;28;20045;-70
2022/10/26 05:32:04;;;;;;;5.95;3.15;;;10.20;99.90;;;;;;4998410;28;20490;-70
2022/10/26 05:34:30;;;;;;;6.97;3.70;;;10.20;99.90;;;;;;5048213;28;20127;-70
2022/10/26 05:36:55;;;;;;;10.02;3.63;;;10.30;99.90;;;;;;5025164;28;20123;-70
2022/10/26 05:39:21;;;;;;;6.07;3.22;;;10.30;99.90;;;;;;5006690;28;20080;-70
2022/10/26 05:41:47;;;;;;;8.20;2.95;;;10.30;99.90;;;;;;5057610;28;20064;-70
2022/10/26 05:44:13;;;;;;;7.93;3.83;;;10.30;99.90;;;;;;5029932;28;20127;-70
2022/10/26 05:46:38;;;;;;;8.00;3.50;;;10.30;99.90;;;;;;5013606;28;20040;-70
2022/10/26 05:49:05;;;;;;;8.25;3.80;;;10.30;99.90;;;;;;5054874;28;20049;-69
2022/10/26 05:51:36;;;;;;;10.00;3.70;;;10.30;99.90;;;;;;5007944;28;20049;-69
2022/10/26 05:54:02;;;;;;;8.18;3.58;;;10.30;99.90;;;;;;5021136;28;20045;-69
2022/10/26 05:56:41;;;;;;;9.38;3.92;;;10.30;99.90;;;;;;5003443;28;20064;-69
2022/10/26 05:59:12;;;;;;;9.40;3.70;;;10.30;99.90;;;;;;5013559;28;20691;-69
2022/10/26 06:01:56;;;;;;;13.07;5.20;;;10.30;99.90;;;;;;5011004;28;20041;-70
2022/10/26 06:04:29;;;;;;;11.48;4.30;;;10.30;99.90;;;;;;5039664;28;20064;-69
2022/10/26 06:06:55;;;;;;;8.90;3.85;;;10.30;99.90;;;;;;5014354;28;20048;-70
2022/10/26 06:09:21;;;;;;;13.75;4.18;;;10.30;99.90;;;;;;5013203;28;20052;-70
2022/10/26 06:11:47;;;;;;;9.15;4.20;;;10.30;99.90;;;;;;5025732;28;20084;-68
2022/10/26 06:14:13;;;;;;;8.27;3.80;;;10.30;99.90;;;;;;5014040;28;20048;-70
2022/10/26 06:17:02;;;;;;;9.15;4.45;;;10.30;99.90;;;;;;5012606;28;20072;-70
2022/10/26 06:19:55;;;;;;;9.77;3.90;;;10.40;99.90;;;;;;5014959;28;20053;-70
2022/10/26 06:23:01;;;;;;;9.50;4.57;;;10.40;99.90;;;;;;5048415;28;20048;-69
2022/10/26 06:25:47;;;;;;;10.93;4.47;;;10.40;99.90;;;;;;5025610;28;20106;-69
2022/10/26 06:28:19;;;;;;;7.95;3.95;;;10.40;99.90;;;;;;5041245;28;20068;-70
2022/10/26 06:30:45;;;;;;;8.63;4.47;;;10.50;99.90;;;;;;5047944;28;20053;-69
2022/10/26 06:33:11;;;;;;;8.88;4.57;;;10.50;99.90;;;;;;5020282;28;20056;-69
2022/10/26 06:36:13;;;;;;;12.95;4.32;;;10.50;99.90;;;;;;5029942;28;20056;-69
2022/10/26 06:38:39;;;;;;;9.82;3.83;;;10.60;99.90;;;;;;5027430;28;20052;-69
2022/10/26 06:41:05;;;;;;;10.00;3.90;;;10.60;99.90;;;;;;5046607;28;20040;-69
2022/10/26 06:43:32;;;;;;;7.68;3.72;;;10.60;99.90;;;;;;5026978;28;20044;-69
2022/10/26 06:46:17;;;;;;;10.05;3.92;;;10.70;99.90;;;;;;5002396;28;20046;-69
2022/10/26 06:48:54;;;;;;;11.20;3.83;;;10.70;99.90;;;;;;5028634;28;20080;-69
2022/10/26 06:51:20;;;;;;;6.77;3.37;;;10.70;99.90;;;;;;5021944;28;20049;-69
2022/10/26 06:54:10;;;;;;;7.40;3.75;;;10.70;99.90;;;;;;5024669;28;20561;-70
2022/10/26 06:56:37;;;;;;;9.18;3.72;;;10.70;99.90;;;;;;5018277;28;20048;-68
2022/10/26 06:59:35;;;;;;;7.85;3.30;;;10.70;99.90;;;;;;5034529;28;20546;-68
2022/10/26 07:02:01;;;;;;;8.88;3.63;;;10.70;99.90;;;;;;5005694;28;20138;-68
2022/10/26 07:04:27;;;;;;;7.68;3.40;;;10.60;99.90;;;;;;4994869;28;20454;-69
2022/10/26 07:06:55;;;;;;;9.35;3.72;;;10.50;99.90;;;;;;5008749;28;20041;-68
2022/10/26 07:09:21;;;;;;;9.35;3.40;;;10.50;99.90;;;;;;5026569;28;20102;-69
2022/10/26 07:11:47;;;;;;;6.75;3.70;;;10.50;99.90;;;;;;5013905;28;20077;-69
2022/10/26 07:14:13;;;;;;;8.50;3.42;;;10.50;99.90;;;;;;5030807;28;20049;-69
2022/10/26 07:16:38;;;;;;;15.90;4.43;;;10.50;99.90;;;;;;5027711;28;20048;-69
2022/10/26 07:19:04;;;;;;;9.60;4.28;;;10.50;99.90;;;;;;5028209;28;20056;-69
2022/10/26 07:21:30;;;;;;;8.10;4.13;;;10.50;99.90;;;;;;5015887;28;20042;-69
2022/10/26 07:23:56;;;;;;;10.68;5.78;;;10.50;99.90;;;;;;5033472;28;20041;-69
2022/10/26 07:26:24;;;;;;;24.25;13.85;;;10.50;99.90;;;;;;5051319;28;20045;-69
2022/10/26 07:28:50;;;;;;;11.20;5.45;;;10.60;99.90;;;;;;5014997;28;20061;-70
2022/10/26 07:31:16;;;;;;;9.60;4.07;;;10.60;99.90;;;;;;5015132;28;20045;-70
2022/10/26 07:33:44;;;;;;;8.18;3.50;;;10.70;99.90;;;;;;5065204;28;20079;-69
2022/10/26 07:36:10;;;;;;;6.82;3.63;;;10.80;99.90;;;;;;5033594;28;20538;-69
2022/10/26 07:38:37;;;;;;;8.38;3.08;;;10.90;99.90;;;;;;5016199;28;20195;-69
2022/10/26 07:41:03;;;;;;;4.77;2.97;;;11.00;99.90;;;;;;5029789;28;20045;-69
2022/10/26 07:43:29;;;;;;;6.28;3.33;;;11.10;99.90;;;;;;5048412;28;20055;-70
2022/10/26 07:45:55;;;;;;;6.30;3.65;;;11.10;99.90;;;;;;5029955;28;20040;-69
2022/10/26 07:48:21;;;;;;;6.97;4.03;;;11.20;99.90;;;;;;5059841;28;20084;-69
2022/10/26 07:50:46;;;;;;;8.75;3.30;;;11.30;99.90;;;;;;5023263;28;20508;-70
2022/10/26 07:53:12;;;;;;;6.10;3.15;;;11.30;99.90;;;;;;5017355;28;20437;-70
2022/10/26 07:55:38;;;;;;;7.80;3.20;;;11.40;99.90;;;;;;5033071;28;20052;-70
2022/10/26 07:58:04;;;;;;;13.05;3.63;;;11.40;99.90;;;;;;5047181;28;20057;-70
2022/10/26 08:00:30;;;;;;;8.90;3.30;;;11.50;99.90;;;;;;5028516;28;20107;-69
2022/10/26 08:02:56;;;;;;;9.10;3.00;;;11.60;99.90;;;;;;5046097;28;20041;-69
2022/10/26 08:05:21;;;;;;;6.10;2.58;;;11.70;99.90;;;;;;5022335;28;20407;-70
2022/10/26 08:07:47;;;;;;;8.45;2.97;;;11.70;99.90;;;;;;4996872;28;20049;-70
2022/10/26 08:10:13;;;;;;;6.15;2.40;;;11.80;99.90;;;;;;5046228;28;20070;-69
2022/10/26 08:12:40;;;;;;;6.35;2.50;;;11.90;99.90;;;;;;5026333;28;20041;-70
2022/10/26 08:15:06;;;;;;;8.50;2.30;;;12.00;99.90;;;;;;5032495;28;20486;-70
2022/10/26 08:17:32;;;;;;;12.90;3.58;;;12.10;99.90;;;;;;5015466;28;20052;-70
2022/10/26 08:19:59;;;;;;;13.20;2.75;;;12.20;99.90;;;;;;5012328;28;20119;-69
2022/10/26 08:22:27;;;;;;;7.68;2.60;;;12.30;99.90;;;;;;5029769;28;20881;-70
2022/10/26 08:24:53;;;;;;;7.22;2.13;;;12.30;99.90;;;;;;5023529;28;20502;-69
2022/10/26 08:27:18;;;;;;;5.00;1.98;;;12.50;99.90;;;;;;5032123;28;20087;-69
2022/10/26 08:29:44;;;;;;;9.07;2.67;;;12.50;99.90;;;;;;5042113;28;20107;-70
2022/10/26 08:32:10;;;;;;;4.55;2.00;;;12.60;99.90;;;;;;5050048;28;20504;-70
2022/10/26 08:34:35;;;;;;;5.50;2.03;;;12.70;99.90;;;;;;5011640;28;20049;-70
2022/10/26 08:37:01;;;;;;;7.47;1.92;;;12.70;99.90;;;;;;5062517;28;20048;-70
2022/10/26 08:39:29;;;;;;;3.67;1.77;;;12.80;99.90;;;;;;5031352;28;20106;-70
2022/10/26 08:42:21;;;;;;;10.43;2.35;;;12.90;99.90;;;;;;5035214;28;20057;-70
2022/10/26 08:44:48;;;;;;;6.80;2.22;;;13.00;99.90;;;;;;5024823;28;20045;-70
2022/10/26 08:47:21;;;;;;;7.25;2.30;;;13.00;99.90;;;;;;4993941;28;20099;-70
2022/10/26 08:50:03;;;;;;;7.07;1.88;;;13.10;99.90;;;;;;5017096;28;20052;-69
2022/10/26 08:52:54;;;;;;;7.40;2.25;;;13.30;99.90;;;;;;5026008;28;20072;-70
2022/10/26 08:55:22;;;;;;;8.68;1.98;;;13.40;99.90;;;;;;5023818;28;20118;-69
2022/10/26 08:57:50;;;;;;;6.80;2.45;;;13.40;99.90;;;;;;5016539;28;20443;-69
2022/10/26 09:00:18;;;;;;;4.93;1.90;;;13.50;99.90;;;;;;5011520;28;20053;-70
2022/10/26 09:02:43;;;;;;;6.82;2.20;;;13.60;99.90;;;;;;5040775;28;20037;-69
2022/10/26 09:05:18;;;;;;;6.00;2.28;;;13.60;99.90;;;;;;5002739;28;20041;-68
2022/10/26 09:07:54;;;;;;;7.15;2.00;;;13.60;99.90;;;;;;5048157;28;20052;-69
2022/10/26 09:10:43;;;;;;;7.97;1.80;;;13.70;99.90;;;;;;5046317;28;20128;-69
2022/10/26 09:13:23;;;;;;;9.20;2.22;;;13.70;99.90;;;;;;5000588;28;20041;-69
2022/10/26 09:16:04;;;;;;;4.68;1.90;;;13.60;99.90;;;;;;5042459;28;20546;-69
2022/10/26 09:18:39;;;;;;;5.70;1.90;;;13.60;99.90;;;;;;5041265;28;20049;-69
2022/10/26 09:21:14;;;;;;;4.30;2.03;;;13.60;99.90;;;;;;5043231;28;20132;-69
2022/10/26 09:24:14;;;;;;;7.32;1.90;;;13.70;99.90;;;;;;5031092;28;20045;-69
2022/10/26 09:26:46;;;;;;;7.85;2.03;;;13.70;99.90;;;;;;5044609;28;20362;-70
2022/10/26 09:29:12;;;;;;;6.97;2.30;;;13.70;99.90;;;;;;5030613;28;20150;-69
2022/10/26 09:31:41;;;;;;;5.38;2.00;;;13.80;99.90;;;;;;5027891;28;20052;-69
2022/10/26 09:34:07;;;;;;;5.63;1.70;;;13.80;99.90;;;;;;5025585;28;20053;-69
2022/10/26 09:36:32;;;;;;;4.72;1.90;;;13.90;99.90;;;;;;5038648;28;20049;-69
2022/10/26 09:39:46;;;;;;;8.63;2.53;;;14.00;99.90;;;;;;5024427;28;20056;-70
2022/10/26 09:42:28;;;;;;;5.93;2.00;;;14.00;99.90;;;;;;5039559;28;20052;-69
2022/10/26 09:45:04;;;;;;;4.95;2.25;;;14.10;99.90;;;;;;4999262;28;20037;-68
2022/10/26 09:47:32;;;;;;;7.00;1.90;;;14.10;99.90;;;;;;5030504;28;20047;-70
2022/10/26 09:50:01;;;;;;;6.35;2.35;;;14.20;99.90;;;;;;5031485;28;20174;-69
2022/10/26 09:52:27;;;;;;;6.57;2.08;;;14.30;99.90;;;;;;5046730;28;20071;-69
2022/10/26 09:54:52;;;;;;;6.20;2.15;;;14.30;99.90;;;;;;5031282;28;20166;-70
2022/10/26 09:57:19;;;;;;;6.40;2.10;;;14.30;99.90;;;;;;5014411;28;20057;-70
2022/10/26 09:59:46;;;;;;;7.80;2.08;;;14.40;99.90;;;;;;5020125;28;20139;-70
2022/10/26 10:02:35;;;;;;;5.72;2.17;;;14.40;99.90;;;;;;5012275;28;20482;-70
2022/10/26 10:05:01;;;;;;;6.97;2.15;;;14.40;99.90;;;;;;5023352;28;20111;-70
2022/10/26 10:07:26;;;;;;;10.13;2.60;;;14.40;99.90;;;;;;5018718;28;20707;-69
2022/10/26 10:10:15;;;;;;;10.25;2.90;;;14.40;99.90;;;;;;5023281;28;20045;-69
2022/10/26 10:12:40;;;;;;;9.20;3.20;;;14.30;99.90;;;;;;5021626;28;20137;-69
2022/10/26 10:15:16;;;;;;;12.80;5.38;;;14.50;99.90;;;;;;5015738;28;20127;-70
2022/10/26 10:17:47;;;;;;;10.15;4.05;;;14.60;99.90;;;;;;5030146;28;20064;-70
2022/10/26 10:20:21;;;;;;;5.63;3.03;;;14.60;99.90;;;;;;5041536;28;20048;-70
2022/10/26 10:23:00;;;;;;;4.93;2.13;;;14.90;99.90;;;;;;5010497;28;20128;-70
2022/10/26 10:25:36;;;;;;;6.25;1.80;;;15.10;99.90;;;;;;5039921;28;20045;-70
2022/10/26 10:28:20;;;;;;;7.20;2.03;;;15.20;99.90;;;;;;5029557;28;20427;-70
2022/10/26 10:31:00;;;;;;;5.75;2.10;;;15.30;99.90;;;;;;5015983;28;20106;-70
2022/10/26 10:33:39;;;;;;;6.88;2.20;;;15.40;99.90;;;;;;5011351;28;20041;-70
2022/10/26 10:36:12;;;;;;;8.60;2.60;;;15.40;99.90;;;;;;5057321;28;20041;-70
2022/10/26 10:38:40;;;;;;;5.93;2.35;;;15.50;99.90;;;;;;5017682;28;20141;-70
2022/10/26 10:41:06;;;;;;;12.90;3.55;;;15.60;99.90;;;;;;5054315;28;20053;-70
2022/10/26 10:43:31;;;;;;;7.80;3.65;;;15.70;99.90;;;;;;5017290;28;20440;-70
2022/10/26 10:45:57;;;;;;;15.95;4.43;;;16.00;99.90;;;;;;5017370;28;20059;-71
2022/10/26 10:48:27;;;;;;;13.43;4.07;;;16.10;99.90;;;;;;5033143;28;20067;-70
2022/10/26 10:50:55;;;;;;;12.90;5.38;;;16.60;99.90;;;;;;5038280;28;20081;-70
2022/10/26 10:53:23;;;;;;;;;;;17.10;99.90;;;;;;5041417;28;20156;-70
2022/10/26 10:56:00;;;;;;;10.07;2.67;;;17.90;99.90;;;;;;5015024;28;19920;-70
2022/10/26 10:58:51;;;;;;;8.48;3.50;;;18.90;99.90;;;;;;5033607;28;20386;-70
2022/10/26 11:01:20;;;;;;;7.15;2.65;;;19.80;99.90;;;;;;5017992;28;20045;-70
2022/10/26 11:03:48;;;;;;;7.32;2.70;;;20.80;99.90;;;;;;5032338;28;20072;-71
2022/10/26 11:06:15;;;;;;;;;;;21.20;99.90;;;;;;5049819;28;20056;-71
2022/10/26 11:08:49;;;;;;;6.20;1.80;;;21.40;98.40;;;;;;5046499;28;19949;-70
2022/10/26 11:11:32;;;;;;;8.65;2.08;;;21.00;97.80;;;;;;5032615;28;20115;-70
2022/10/26 11:14:12;;;;;;;8.43;2.20;;;20.50;98.70;;;;;;5020291;28;20041;-70
2022/10/26 11:16:41;;;;;;;7.78;2.00;;;20.10;99.70;;;;;;5045379;28;20048;-69
2022/10/26 11:19:28;;;;;;;6.88;2.03;;;19.90;99.90;;;;;;5049807;28;20052;-67
2022/10/26 11:21:55;;;;;;;8.23;2.35;;;19.50;99.90;;;;;;5048691;28;20080;-70
2022/10/26 11:24:30;;;;;;;5.88;1.65;;;19.20;99.90;;;;;;5046754;28;20045;-68
2022/10/26 11:27:01;;;;;;;6.82;1.70;;;19.00;99.90;;;;;;5044758;28;20036;-68
2022/10/26 11:29:54;;;;;;;4.78;1.55;;;18.50;99.90;;;;;;5021659;28;20041;-68
2022/10/26 11:32:27;;;;;;;6.75;2.15;;;18.40;99.90;;;;;;5045115;28;20055;-67
2022/10/26 11:35:32;;;;;;;5.10;1.70;;;18.40;99.90;;;;;;5032325;28;20048;-68
2022/10/26 11:38:01;;;;;;;8.60;1.95;;;18.30;99.90;;;;;;5025669;28;20498;-67
2022/10/26 11:40:29;;;;;;;;;;;18.00;99.90;;;;;;5040082;28;20053;-68
2022/10/26 11:43:24;;;;;;;5.68;1.90;;;18.00;99.90;;;;;;5049206;28;19923;-70
2022/10/26 11:46:03;;;;;;;4.78;1.63;;;17.90;99.90;;;;;;5043676;28;20037;-66
2022/10/26 11:48:43;;;;;;;7.53;2.05;;;17.60;99.90;;;;;;5048282;28;20051;-68
2022/10/26 11:51:17;;;;;;;3.78;1.60;;;17.60;99.90;;;;;;5037411;28;20049;-69
2022/10/26 11:53:43;;;;;;;7.18;2.20;;;17.50;99.90;;;;;;5037961;28;20037;-68
2022/10/26 11:56:32;;;;;;;4.72;1.48;;;17.50;99.90;;;;;;5032554;28;20041;-68
2022/10/26 11:58:58;;;;;;;3.50;1.50;;;17.50;99.90;;;;;;5037787;28;20053;-70
2022/10/26 12:01:24;;;;;;;5.95;2.10;;;17.50;99.90;;;;;;5012063;28;20044;-70
2022/10/26 12:03:50;;;;;;;9.00;1.80;;;17.50;99.90;;;;;;5028345;28;20916;-70
2022/10/26 12:06:21;;;;;;;4.75;1.60;;;17.50;99.90;;;;;;5023771;28;20056;-69
2022/10/26 12:08:56;;;;;;;6.18;1.98;;;17.50;99.90;;;;;;5016619;28;20052;-69
2022/10/26 12:12:00;;;;;;;4.32;1.80;;;17.60;99.90;;;;;;5002625;28;20045;-70
2022/10/26 12:14:43;;;;;;;6.53;1.77;;;17.40;99.90;;;;;;4976652;28;20051;-69
2022/10/26 12:17:14;;;;;;;4.93;1.80;;;17.40;99.90;;;;;;4984149;28;20050;-70
2022/10/26 12:20:18;;;;;;;5.63;1.88;;;17.60;99.90;;;;;;5016084;28;20060;-69
2022/10/26 12:22:43;;;;;;;7.00;2.20;;;17.60;99.90;;;;;;5043917;28;20685;-69
2022/10/26 12:25:12;;;;;;;3.38;1.70;;;18.10;99.90;;;;;;5031635;28;20064;-68
2022/10/26 12:27:38;;;;;;;7.22;1.85;;;19.10;99.90;;;;;;5043225;28;20564;-69
2022/10/26 12:30:31;;;;;;;6.88;1.83;;;19.20;99.90;;;;;;5041617;28;20048;-69
2022/10/26 12:32:58;;;;;;;6.82;1.50;;;19.20;99.90;;;;;;5024477;28;20041;-69
2022/10/26 12:35:44;;;;;;;5.90;1.92;;;18.90;99.90;;;;;;5048802;28;20075;-70
2022/10/26 12:38:25;;;;;;;5.22;1.98;;;19.40;99.90;;;;;;5013569;28;20041;-70
2022/10/26 12:41:03;;;;;;;7.45;1.73;;;20.60;99.90;;;;;;5036229;28;20482;-70
2022/10/26 12:43:28;;;;;;;6.45;1.80;;;21.90;98.40;;;;;;5043744;28;20053;-68
2022/10/26 12:46:13;;;;;;;6.30;2.33;;;22.80;97.10;;;;;;5047252;28;20041;-70
2022/10/26 12:48:46;;;;;;;4.13;1.60;;;23.10;96.50;;;;;;5048122;28;20040;-68
2022/10/26 12:51:20;;;;;;;7.32;1.80;;;23.10;95.70;;;;;;5015165;28;20048;-70
2022/10/26 12:53:56;;;;;;;7.97;1.73;;;22.90;95.10;;;;;;5044976;28;20079;-68
2022/10/26 12:56:40;;;;;;;6.93;2.33;;;22.70;94.90;;;;;;5024592;28;20075;-70
2022/10/26 12:59:27;;;;;;;7.60;2.03;;;22.10;96.70;;;;;;5035895;28;20049;-70
2022/10/26 13:01:57;;;;;;;10.23;1.90;;;21.90;96.40;;;;;;5027716;28;20631;-70
2022/10/26 13:04:58;;;;;;;6.65;1.83;;;21.40;97.20;;;;;;5046166;28;20049;-70
2022/10/26 13:07:32;;;;;;;5.82;1.73;;;21.00;98.30;;;;;;5025392;28;20429;-70